createdAt,value
2019-05-06T00:01:28.451Z,15.25
2019-05-06T00:04:00.852Z,15.26
2019-05-06T00:06:29.192Z,15.25
2019-05-06T00:08:58.547Z,15.25
2019-05-06T00:11:30.490Z,15.23
2019-05-06T00:14:00.163Z,15.24
2019-05-06T00:16:29.629Z,15.23
2019-05-06T00:18:59.203Z,15.23
2019-05-06T00:21:29.546Z,15.23
2019-05-06T00:23:59.001Z,15.23
2019-05-06T00:26:47.907Z,15.23
2019-05-06T00:29:20.491Z,15.22
2019-05-06T00:31:50.032Z,15.22
2019-05-06T00:34:19.578Z,15.20
2019-05-06T00:36:49.041Z,15.20
2019-05-06T00:39:20.057Z,15.20
2019-05-06T00:41:51.058Z,15.19
2019-05-06T00:44:20.988Z,15.18
2019-05-06T00:46:50.442Z,15.18
2019-05-06T00:49:20.214Z,15.17
2019-05-06T00:51:49.899Z,15.18
2019-05-06T00:54:24.846Z,15.18
2019-05-06T00:56:57.129Z,15.17
2019-05-06T00:59:26.709Z,15.15
2019-05-06T01:01:57.861Z,15.17
2019-05-06T01:04:27.365Z,15.16
2019-05-06T01:06:56.835Z,15.16
2019-05-06T01:09:26.271Z,15.15
2019-05-06T01:11:57.750Z,15.15
2019-05-06T01:14:37.914Z,15.14
2019-05-06T01:17:07.413Z,15.13
2019-05-06T01:19:38.230Z,15.13
2019-05-06T01:22:09.819Z,15.13
2019-05-06T01:24:41.552Z,15.12
2019-05-06T01:27:12.071Z,15.12
2019-05-06T01:29:44.024Z,15.12
2019-05-06T01:32:14.879Z,15.10
2019-05-06T01:34:44.707Z,15.12
2019-05-06T01:37:16.949Z,15.12
2019-05-06T01:39:48.212Z,15.12
2019-05-06T01:42:19.992Z,15.11
2019-05-06T01:44:49.586Z,15.12
2019-05-06T01:47:23.641Z,15.11
2019-05-06T01:49:53.799Z,15.11
2019-05-06T01:52:24.149Z,15.10
2019-05-06T01:54:54.318Z,15.08
2019-05-06T01:57:24.539Z,15.09
2019-05-06T01:59:54.383Z,15.09
2019-05-06T02:02:24.135Z,15.09
2019-05-06T02:04:54.237Z,15.10
2019-05-06T02:07:24.279Z,15.09
2019-05-06T02:09:55.675Z,15.09
2019-05-06T02:12:25.358Z,15.09
2019-05-06T02:14:54.972Z,15.09
2019-05-06T02:17:26.052Z,15.09
2019-05-06T02:19:55.496Z,15.07
2019-05-06T02:22:34.479Z,15.08
2019-05-06T02:25:06.416Z,15.07
2019-05-06T02:27:37.229Z,15.06
2019-05-06T02:30:18.427Z,15.07
2019-05-06T02:33:05.793Z,15.06
2019-05-06T02:35:38.474Z,15.05
2019-05-06T02:38:09.699Z,15.06
2019-05-06T02:40:39.351Z,15.05
2019-05-06T02:43:13.420Z,15.05
2019-05-06T02:45:39.919Z,15.06
2019-05-06T02:48:22.729Z,15.04
2019-05-06T02:50:53.462Z,15.05
2019-05-06T02:53:23.741Z,15.04
2019-05-06T02:55:53.530Z,15.04
2019-05-06T02:58:23.763Z,15.03
2019-05-06T03:00:54.025Z,15.03
2019-05-06T03:03:25.433Z,15.02
2019-05-06T03:05:54.897Z,15.03
2019-05-06T03:08:24.357Z,15.03
2019-05-06T03:10:53.923Z,15.02
2019-05-06T03:13:23.951Z,15.02
2019-05-06T03:15:54.454Z,15.02
2019-05-06T03:18:24.012Z,15.00
2019-05-06T03:20:53.498Z,15.01
2019-05-06T03:23:24.721Z,14.98
2019-05-06T03:25:54.289Z,14.99
2019-05-06T03:28:24.344Z,14.99
2019-05-06T03:30:57.066Z,14.99
2019-05-06T03:33:46.858Z,14.99
2019-05-06T03:36:13.711Z,14.99
2019-05-06T03:38:33.414Z,14.98
2019-05-06T03:41:35.278Z,14.96
2019-05-06T03:44:04.910Z,14.95
2019-05-06T03:46:54.226Z,14.95
2019-05-06T03:49:25.520Z,14.96
2019-05-06T03:51:56.565Z,14.95
2019-05-06T03:54:27.222Z,14.95
2019-05-06T03:56:57.524Z,14.94
2019-05-06T03:59:28.128Z,14.93
2019-05-06T04:01:58.877Z,14.94
2019-05-06T04:04:29.156Z,14.94
2019-05-06T04:06:59.615Z,14.92
2019-05-06T04:09:36.378Z,14.92
2019-05-06T04:12:03.560Z,14.91
2019-05-06T04:14:35.199Z,14.91
2019-05-06T04:17:07.218Z,14.91
2019-05-06T04:19:48.647Z,14.91
2019-05-06T04:22:23.377Z,14.90
2019-05-06T04:24:54.133Z,14.90
2019-05-06T04:27:44.081Z,14.90
2019-05-06T04:30:14.586Z,14.89
2019-05-06T04:32:45.288Z,14.89
2019-05-06T04:35:16.085Z,14.88
2019-05-06T04:37:46.880Z,14.89
2019-05-06T04:40:18.652Z,14.89
2019-05-06T04:42:49.159Z,14.87
2019-05-06T04:45:23.279Z,14.87
2019-05-06T04:47:53.692Z,14.86
2019-05-06T04:50:24.507Z,14.86
2019-05-06T04:52:56.518Z,14.86
2019-05-06T04:55:27.119Z,14.85
2019-05-06T04:57:57.627Z,14.86
2019-05-06T05:00:27.901Z,14.86
2019-05-06T05:02:57.888Z,14.85
2019-05-06T05:05:28.273Z,14.85
2019-05-06T05:07:58.687Z,14.86
2019-05-06T05:10:32.286Z,14.84
2019-05-06T05:13:12.557Z,14.84
2019-05-06T05:15:59.100Z,14.85
2019-05-06T05:18:43.190Z,14.92
2019-05-06T05:21:13.624Z,14.91
2019-05-06T05:23:45.241Z,14.88
2019-05-06T05:26:15.880Z,14.88
2019-05-06T05:28:46.017Z,14.86
2019-05-06T05:31:16.388Z,14.82
2019-05-06T05:33:46.735Z,14.79
2019-05-06T05:36:16.789Z,14.78
2019-05-06T05:38:47.318Z,14.75
2019-05-06T05:41:17.454Z,14.73
2019-05-06T05:43:52.578Z,14.71
2019-05-06T05:46:24.295Z,14.70
2019-05-06T05:48:58.913Z,14.70
2019-05-06T05:51:28.951Z,14.71
2019-05-06T05:54:02.220Z,14.69
2019-05-06T05:56:34.902Z,14.69
2019-05-06T05:59:04.985Z,14.66
2019-05-06T06:01:36.386Z,14.67
2019-05-06T06:04:07.007Z,14.68
2019-05-06T06:06:37.411Z,14.71
2019-05-06T06:09:09.888Z,14.69
2019-05-06T06:11:50.415Z,14.66
2019-05-06T06:14:39.259Z,14.64
2019-05-06T06:17:27.624Z,14.63
2019-05-06T06:19:59.678Z,14.63
2019-05-06T06:22:33.101Z,14.62
2019-05-06T06:25:04.428Z,14.61
2019-05-06T06:27:36.424Z,14.61
2019-05-06T06:30:07.817Z,14.61
2019-05-06T06:32:38.074Z,14.60
2019-05-06T06:35:12.050Z,14.60
2019-05-06T06:37:49.624Z,14.60
2019-05-06T06:40:22.707Z,14.57
2019-05-06T06:42:54.622Z,14.56
2019-05-06T06:45:26.499Z,14.56
2019-05-06T06:47:56.866Z,14.57
2019-05-06T06:50:27.479Z,14.53
2019-05-06T06:52:57.700Z,14.52
2019-05-06T06:55:27.772Z,14.54
2019-05-06T06:57:59.469Z,14.51
2019-05-06T07:00:33.578Z,14.55
2019-05-06T07:03:21.828Z,14.54
2019-05-06T07:05:56.626Z,14.47
2019-05-06T07:08:36.675Z,14.46
2019-05-06T07:10:58.970Z,14.49
2019-05-06T07:13:29.339Z,14.47
2019-05-06T07:15:59.559Z,14.48
2019-05-06T07:18:33.177Z,14.52
2019-05-06T07:21:06.774Z,14.39
2019-05-06T07:23:38.337Z,14.41
2019-05-06T07:26:11.983Z,14.45
2019-05-06T07:28:43.695Z,14.48
2019-05-06T07:31:21.829Z,14.49
2019-05-06T07:33:46.159Z,14.47
2019-05-06T07:36:16.617Z,14.44
2019-05-06T07:38:56.067Z,14.41
2019-05-06T07:41:32.823Z,14.43
2019-05-06T07:44:04.549Z,14.45
2019-05-06T07:46:52.340Z,14.48
2019-05-06T07:49:23.501Z,14.48
2019-05-06T07:51:53.736Z,14.49
2019-05-06T07:54:23.817Z,14.49
2019-05-06T07:56:54.242Z,14.47
2019-05-06T07:59:27.507Z,14.47
2019-05-06T08:01:57.607Z,14.49
2019-05-06T08:04:28.002Z,14.51
2019-05-06T08:06:58.472Z,14.51
2019-05-06T08:09:28.520Z,14.52
2019-05-06T08:11:59.055Z,14.53
2019-05-06T08:14:32.918Z,14.53
2019-05-06T08:17:04.733Z,14.53
2019-05-06T08:19:34.264Z,14.52
2019-05-06T08:22:16.571Z,14.45
2019-05-06T08:24:46.946Z,14.45
2019-05-06T08:27:17.517Z,14.51
2019-05-06T08:29:47.969Z,14.53
2019-05-06T08:32:22.633Z,14.56
2019-05-06T08:34:52.796Z,14.53
2019-05-06T08:37:27.488Z,14.52
2019-05-06T08:39:59.936Z,14.51
2019-05-06T08:42:33.033Z,14.54
2019-05-06T08:45:06.692Z,14.57
2019-05-06T08:47:35.587Z,14.59
2019-05-06T08:50:12.797Z,14.60
2019-05-06T08:53:00.968Z,14.59
2019-05-06T08:55:33.057Z,14.56
2019-05-06T08:58:03.432Z,14.56
2019-05-06T09:00:37.207Z,14.59
2019-05-06T09:03:07.347Z,14.58
2019-05-06T09:05:37.622Z,14.52
2019-05-06T09:08:08.144Z,14.56
2019-05-06T09:10:38.563Z,14.57
2019-05-06T09:13:09.217Z,14.56
2019-05-06T09:15:39.339Z,14.61
2019-05-06T09:19:04.314Z,14.63
2019-05-06T09:21:34.001Z,14.64
2019-05-06T09:24:04.006Z,14.68
2019-05-06T09:26:43.184Z,14.69
2019-05-06T09:29:32.382Z,14.63
2019-05-06T09:32:06.502Z,14.68
2019-05-06T09:34:43.103Z,14.73
2019-05-06T09:37:14.636Z,14.74
2019-05-06T09:39:45.653Z,14.69
2019-05-06T09:42:16.407Z,14.67
2019-05-06T09:44:50.391Z,14.65
2019-05-06T09:47:24.707Z,14.64
2019-05-06T09:49:56.636Z,14.72
2019-05-06T09:52:28.249Z,14.65
2019-05-06T09:55:03.522Z,14.66
2019-05-06T09:57:35.708Z,14.67
2019-05-06T10:00:06.985Z,14.69
2019-05-06T10:02:37.700Z,14.69
2019-05-06T10:05:08.066Z,14.71
2019-05-06T10:07:38.436Z,14.71
2019-05-06T10:10:08.682Z,14.72
2019-05-06T10:12:39.126Z,14.74
2019-05-06T10:15:09.267Z,14.73
2019-05-06T10:17:39.719Z,14.68
2019-05-06T10:20:09.855Z,14.63
2019-05-06T10:22:42.911Z,14.68
2019-05-06T10:25:12.245Z,14.66
2019-05-06T10:27:44.152Z,14.59
2019-05-06T10:30:15.874Z,14.61
2019-05-06T10:32:47.950Z,14.68
2019-05-06T10:35:18.719Z,14.60
2019-05-06T10:38:19.566Z,14.60
2019-05-06T10:41:04.037Z,14.65
2019-05-06T10:43:58.556Z,14.68
2019-05-06T10:46:28.812Z,14.71
2019-05-06T10:48:59.033Z,14.75
2019-05-06T10:51:37.080Z,14.74
2019-05-06T10:54:07.217Z,14.72
2019-05-06T10:56:49.817Z,14.66
2019-05-06T10:59:12.977Z,14.61
2019-05-06T11:01:42.754Z,14.55
2019-05-06T11:04:13.598Z,14.61
2019-05-06T11:06:44.120Z,14.67
2019-05-06T11:09:14.459Z,14.69
2019-05-06T11:11:44.657Z,14.72
2019-05-06T11:14:14.731Z,14.74
2019-05-06T11:16:45.074Z,14.74
2019-05-06T11:19:15.274Z,14.76
2019-05-06T11:21:46.024Z,14.75
2019-05-06T11:24:16.287Z,14.79
2019-05-06T11:26:46.708Z,14.76
2019-05-06T11:29:21.476Z,14.74
2019-05-06T11:32:02.743Z,14.73
2019-05-06T11:34:34.888Z,14.71
2019-05-06T11:37:14.800Z,14.70
2019-05-06T11:39:44.165Z,14.72
2019-05-06T11:42:28.109Z,14.71
2019-05-06T11:44:46.274Z,14.67
2019-05-06T11:47:17.008Z,14.65
2019-05-06T11:49:48.932Z,14.65
2019-05-06T11:52:19.327Z,14.66
2019-05-06T11:54:49.756Z,14.62
2019-05-06T11:57:20.075Z,14.54
2019-05-06T11:59:52.582Z,14.57
2019-05-06T12:02:24.097Z,14.63
2019-05-06T12:04:54.370Z,14.69
2019-05-06T12:07:24.919Z,14.76
2019-05-06T12:09:55.434Z,14.76
2019-05-06T12:13:02.826Z,14.81
2019-05-06T12:15:33.581Z,14.85
2019-05-06T12:18:04.366Z,14.88
2019-05-06T12:20:34.490Z,14.88
2019-05-06T12:23:04.871Z,14.89
2019-05-06T12:25:35.439Z,14.89
2019-05-06T12:28:05.878Z,14.89
2019-05-06T12:30:36.139Z,14.91
2019-05-06T12:33:08.058Z,14.87
2019-05-06T12:35:39.900Z,14.82
2019-05-06T12:38:26.537Z,14.83
2019-05-06T12:40:44.009Z,14.85
2019-05-06T12:43:16.088Z,14.88
2019-05-06T12:45:53.793Z,14.89
2019-05-06T12:48:28.875Z,14.92
2019-05-06T12:51:03.672Z,14.90
2019-05-06T12:53:33.871Z,14.91
2019-05-06T12:56:03.903Z,14.90
2019-05-06T12:58:34.403Z,14.91
2019-05-06T13:01:05.662Z,14.93
2019-05-06T13:03:35.910Z,14.94
2019-05-06T13:06:08.283Z,14.94
2019-05-06T13:08:55.322Z,14.94
2019-05-06T13:11:09.573Z,14.94
2019-05-06T13:13:56.139Z,14.98
2019-05-06T13:16:12.581Z,14.94
2019-05-06T13:18:47.653Z,15.02
2019-05-06T13:21:14.648Z,15.08
2019-05-06T13:23:46.712Z,15.15
2019-05-06T13:26:16.860Z,15.16
2019-05-06T13:28:48.465Z,15.16
2019-05-06T13:31:21.692Z,15.17
2019-05-06T13:33:57.122Z,15.16
2019-05-06T13:36:27.553Z,15.16
2019-05-06T13:39:13.397Z,15.11
2019-05-06T13:41:29.706Z,15.01
2019-05-06T13:44:04.069Z,15.03
2019-05-06T13:46:35.725Z,14.95
2019-05-06T13:49:05.669Z,14.91
2019-05-06T13:51:38.734Z,14.83
2019-05-06T13:54:08.729Z,14.86
2019-05-06T13:56:38.706Z,14.74
2019-05-06T13:59:08.665Z,14.86
2019-05-06T14:01:43.902Z,14.87
2019-05-06T14:04:14.657Z,14.86
2019-05-06T14:06:45.479Z,14.82
2019-05-06T14:09:28.610Z,14.80
2019-05-06T14:11:47.281Z,14.78
2019-05-06T14:14:17.675Z,14.79
2019-05-06T14:16:47.920Z,14.83
2019-05-06T14:19:17.956Z,14.79
2019-05-06T14:21:48.119Z,14.80
2019-05-06T14:24:18.225Z,14.86
2019-05-06T14:26:57.653Z,14.95
2019-05-06T14:29:28.591Z,14.96
2019-05-06T14:31:59.761Z,14.94
2019-05-06T14:34:29.843Z,14.90
2019-05-06T14:37:00.262Z,14.91
2019-05-06T14:39:49.037Z,14.89
2019-05-06T14:42:04.316Z,14.86
2019-05-06T14:44:34.488Z,14.89
2019-05-06T14:47:04.368Z,14.85
2019-05-06T14:49:43.131Z,14.92
2019-05-06T14:52:13.481Z,15.05
2019-05-06T14:54:45.205Z,15.07
2019-05-06T14:57:16.168Z,15.10
2019-05-06T14:59:46.697Z,15.13
2019-05-06T15:02:17.550Z,15.12
2019-05-06T15:04:47.688Z,15.03
2019-05-06T15:07:17.906Z,14.91
2019-05-06T15:09:58.382Z,15.76
2019-05-06T15:12:22.697Z,16.01
2019-05-06T15:14:52.699Z,16.04
2019-05-06T15:17:24.417Z,16.01
2019-05-06T15:19:54.449Z,16.08
2019-05-06T15:22:24.853Z,16.07
2019-05-06T15:24:54.866Z,16.04
2019-05-06T15:27:26.432Z,16.04
2019-05-06T15:29:58.138Z,16.12
2019-05-06T15:32:32.588Z,16.15
2019-05-06T15:35:12.929Z,16.15
2019-05-06T15:37:44.518Z,16.14
2019-05-06T15:40:30.175Z,16.10
2019-05-06T15:42:47.977Z,16.08
2019-05-06T15:45:18.173Z,16.08
2019-05-06T15:47:52.122Z,16.11
2019-05-06T15:50:23.068Z,16.14
2019-05-06T15:52:54.060Z,16.17
2019-05-06T15:55:24.164Z,16.19
2019-05-06T15:57:54.252Z,16.19
2019-05-06T16:00:24.265Z,16.15
2019-05-06T16:02:56.390Z,16.15
2019-05-06T16:05:26.664Z,16.15
2019-05-06T16:07:57.160Z,16.17
2019-05-06T16:10:27.629Z,16.15
2019-05-06T16:12:58.547Z,16.14
2019-05-06T16:15:29.766Z,16.14
2019-05-06T16:18:02.281Z,16.16
2019-05-06T16:20:33.184Z,16.14
2019-05-06T16:23:14.717Z,16.14
2019-05-06T16:25:44.978Z,16.16
2019-05-06T16:28:16.609Z,16.21
2019-05-06T16:30:47.878Z,16.31
2019-05-06T16:33:19.072Z,16.38
2019-05-06T16:35:49.268Z,16.43
2019-05-06T16:38:19.368Z,16.44
2019-05-06T16:40:49.387Z,16.44
2019-05-06T16:43:22.005Z,16.45
2019-05-06T16:45:53.197Z,16.47
2019-05-06T16:48:22.772Z,16.53
2019-05-06T16:50:52.886Z,16.54
2019-05-06T16:53:23.100Z,16.52
2019-05-06T16:56:04.056Z,16.52
2019-05-06T16:58:47.632Z,16.54
2019-05-06T17:01:17.978Z,16.58
2019-05-06T17:03:52.542Z,16.62
2019-05-06T17:06:28.448Z,16.62
2019-05-06T17:08:58.482Z,16.67
2019-05-06T17:11:31.929Z,16.66
2019-05-06T17:14:00.218Z,16.67
2019-05-06T17:16:34.028Z,16.69
2019-05-06T17:19:05.275Z,16.70
2019-05-06T17:21:35.501Z,16.70
2019-05-06T17:24:05.614Z,16.71
2019-05-06T17:26:35.781Z,16.74
2019-05-06T17:29:05.677Z,16.75
2019-05-06T17:31:42.260Z,16.77
2019-05-06T17:34:13.192Z,16.77
2019-05-06T17:36:43.790Z,16.78
2019-05-06T17:39:14.823Z,16.83
2019-05-06T17:41:48.935Z,16.83
2019-05-06T17:44:17.888Z,16.83
2019-05-06T17:46:59.515Z,16.81
2019-05-06T17:49:34.021Z,16.81
2019-05-06T17:52:17.878Z,16.85
2019-05-06T17:54:48.011Z,16.84
2019-05-06T17:57:18.027Z,16.85
2019-05-06T17:59:48.121Z,16.87
2019-05-06T18:02:22.659Z,16.88
2019-05-06T18:04:53.322Z,16.89
2019-05-06T18:07:23.403Z,16.90
2019-05-06T18:09:53.417Z,16.89
2019-05-06T18:12:23.508Z,16.93
2019-05-06T18:14:56.320Z,16.93
2019-05-06T18:17:29.127Z,16.93
2019-05-06T18:19:58.983Z,16.98
2019-05-06T18:22:29.149Z,16.98
2019-05-06T18:24:59.014Z,16.97
2019-05-06T18:27:29.090Z,16.94
2019-05-06T18:30:11.390Z,16.96
2019-05-06T18:32:32.632Z,16.99
2019-05-06T18:35:02.778Z,17.02
2019-05-06T18:37:33.333Z,17.01
2019-05-06T18:40:03.857Z,17.04
2019-05-06T18:42:33.855Z,17.04
2019-05-06T18:45:04.247Z,17.06
2019-05-06T18:47:34.251Z,17.05
2019-05-06T18:50:05.284Z,17.08
2019-05-06T18:52:35.282Z,17.09
2019-05-06T18:55:05.923Z,17.09
2019-05-06T18:57:37.835Z,17.10
2019-05-06T19:00:08.848Z,17.08
2019-05-06T19:02:42.275Z,17.08
2019-05-06T19:05:14.201Z,17.07
2019-05-06T19:07:46.737Z,17.06
2019-05-06T19:10:17.638Z,17.08
2019-05-06T19:12:47.905Z,17.10
2019-05-06T19:15:18.090Z,17.11
2019-05-06T19:17:47.763Z,17.09
2019-05-06T19:20:17.403Z,17.10
2019-05-06T19:22:47.201Z,17.12
2019-05-06T19:25:16.744Z,17.10
2019-05-06T19:27:46.239Z,17.11
2019-05-06T19:30:16.026Z,17.09
2019-05-06T19:32:45.790Z,17.13
2019-05-06T19:35:16.437Z,17.11
2019-05-06T19:37:47.889Z,17.10
2019-05-06T19:40:17.186Z,17.11
2019-05-06T19:42:50.033Z,17.12
2019-05-06T19:45:17.850Z,17.18
2019-05-06T19:47:47.487Z,17.17
2019-05-06T19:50:17.009Z,17.18
2019-05-06T19:52:46.506Z,17.15
2019-05-06T19:55:16.287Z,17.18
2019-05-06T19:57:45.983Z,17.16
2019-05-06T20:00:16.673Z,17.16
2019-05-06T20:02:46.482Z,17.15
2019-05-06T20:05:31.379Z,17.13
2019-05-06T20:08:16.362Z,17.12
2019-05-06T20:11:04.025Z,17.11
2019-05-06T20:13:33.732Z,17.12
2019-05-06T20:16:03.347Z,17.07
2019-05-06T20:18:32.927Z,17.13
2019-05-06T20:21:02.626Z,17.11
2019-05-06T20:23:32.843Z,17.07
2019-05-06T20:26:03.569Z,17.11
2019-05-06T20:28:33.132Z,17.08
2019-05-06T20:31:02.727Z,17.06
2019-05-06T20:33:32.779Z,17.06
2019-05-06T20:36:02.343Z,17.06
2019-05-06T20:38:33.616Z,17.02
2019-05-06T20:41:03.175Z,17.06
2019-05-06T20:43:32.969Z,16.98
2019-05-06T20:46:02.812Z,16.98
2019-05-06T20:48:32.868Z,16.99
2019-05-06T20:51:03.577Z,16.98
2019-05-06T20:53:34.046Z,16.99
2019-05-06T20:56:03.800Z,16.97
2019-05-06T20:58:34.066Z,16.97
2019-05-06T21:01:05.185Z,16.94
2019-05-06T21:03:36.349Z,16.94
2019-05-06T21:06:05.800Z,16.93
2019-05-06T21:08:35.507Z,16.90
2019-05-06T21:11:06.374Z,16.89
2019-05-06T21:13:36.949Z,16.88
2019-05-06T21:16:07.125Z,16.87
2019-05-06T21:18:36.648Z,16.89
2019-05-06T21:21:06.091Z,16.89
2019-05-06T21:23:37.733Z,16.87
2019-05-06T21:26:07.802Z,16.88
2019-05-06T21:28:38.157Z,16.85
2019-05-06T21:31:07.813Z,16.82
2019-05-06T21:33:37.179Z,16.82
2019-05-06T21:36:06.585Z,16.81
2019-05-06T21:38:36.059Z,16.83
2019-05-06T21:41:05.560Z,16.83
2019-05-06T21:43:46.330Z,16.81
2019-05-06T21:46:08.319Z,16.81
2019-05-06T21:48:37.735Z,16.83
2019-05-06T21:51:07.484Z,16.83
2019-05-06T21:53:37.198Z,16.79
2019-05-06T21:56:06.595Z,16.81
2019-05-06T21:58:36.043Z,16.79
2019-05-06T22:01:07.192Z,16.81
2019-05-06T22:03:37.340Z,16.80
2019-05-06T22:06:06.902Z,16.79
2019-05-06T22:08:36.616Z,16.80
2019-05-06T22:11:05.944Z,16.78
2019-05-06T22:13:35.512Z,16.78
2019-05-06T22:16:05.072Z,16.77
2019-05-06T22:18:34.621Z,16.78
2019-05-06T22:21:09.730Z,16.76
2019-05-06T22:23:51.217Z,16.76
2019-05-06T22:26:23.106Z,16.77
2019-05-06T22:28:52.743Z,16.78
2019-05-06T22:31:25.632Z,16.78
2019-05-06T22:33:56.200Z,16.78
2019-05-06T22:36:25.834Z,16.79
2019-05-06T22:38:55.525Z,16.77
2019-05-06T22:41:25.600Z,16.75
2019-05-06T22:43:55.137Z,16.77
2019-05-06T22:46:24.856Z,16.75
2019-05-06T22:48:55.462Z,16.73
2019-05-06T22:51:26.842Z,16.71
2019-05-06T22:53:56.340Z,16.71
2019-05-06T22:56:27.523Z,16.72
2019-05-06T22:58:57.464Z,16.71
2019-05-06T23:01:43.075Z,16.69
2019-05-06T23:04:13.390Z,16.70
2019-05-06T23:06:44.654Z,16.69
2019-05-06T23:09:14.173Z,16.70
2019-05-06T23:11:43.650Z,16.71
2019-05-06T23:14:27.650Z,16.69
2019-05-06T23:16:44.741Z,16.69
2019-05-06T23:19:16.212Z,16.69
2019-05-06T23:21:46.172Z,16.67
2019-05-06T23:24:18.550Z,16.69
2019-05-06T23:26:48.340Z,16.69
2019-05-06T23:29:18.118Z,16.67
2019-05-06T23:31:47.875Z,16.68
2019-05-06T23:34:17.334Z,16.67
2019-05-06T23:37:02.665Z,16.67
2019-05-06T23:40:28.465Z,16.67
2019-05-06T23:43:52.847Z,16.66
2019-05-06T23:47:17.988Z,16.64
2019-05-06T23:50:42.839Z,16.65
2019-05-06T23:54:06.596Z,16.63
2019-05-06T23:56:43.376Z,16.62
2019-05-06T23:59:18.407Z,16.62
